Time;durP1;ratioP1;P1;durP2;ratioP2;P2;SDS_P1;SDS_P2;PMS_P1;PMS_P2;Temp;Humidity;BMP_temperature;BMP_pressure;BME280_temperature;BME280_humidity;BME280_pressure;Samples;Min_cycle;Max_cycle;Signal;HPM_P1;HPM_P2
2022/01/12 00:00:16;;;;;;;1.30;1.20;;;;;;;;;;5032253;27;92813;-64
2022/01/12 00:02:42;;;;;;;2.17;1.40;;;;;;;;;;5032621;28;92396;-64
2022/01/12 00:05:09;;;;;;;2.65;1.67;;;;;;;;;;5017305;28;93901;-64
2022/01/12 00:07:35;;;;;;;1.45;1.30;;;;;;;;;;5024121;27;92769;-64
2022/01/12 00:10:02;;;;;;;1.50;1.40;;;;;;;;;;5024832;28;91620;-64
2022/01/12 00:12:29;;;;;;;1.77;1.50;;;;;;;;;;5017131;27;93804;-64
2022/01/12 00:14:55;;;;;;;1.40;1.30;;;;;;;;;;5017662;28;92488;-64
2022/01/12 00:17:21;;;;;;;3.90;1.60;;;;;;;;;;5015406;27;94844;-64
2022/01/12 00:19:48;;;;;;;1.73;1.63;;;;;;;;;;5023481;27;93455;-64
2022/01/12 00:22:15;;;;;;;1.65;1.50;;;;;;;;;;5017857;27;92797;-64
2022/01/12 00:25:05;;;;;;;2.28;1.83;;;;;;;;;;5017194;28;94269;-64
2022/01/12 00:33:14;;;;;;;1.80;1.70;;;;;;;;;;4999891;28;92989;-64
2022/01/12 00:35:41;;;;;;;1.88;1.60;;;;;;;;;;5030563;27;91682;-64
2022/01/12 00:38:08;;;;;;;1.77;1.50;;;;;;;;;;5031488;27;92445;-64
2022/01/12 00:40:38;;;;;;;1.42;1.33;;;;;;;;;;5017973;27;93164;-64
2022/01/12 00:43:04;;;;;;;2.05;1.83;;;;;;;;;;5030219;27;94972;-64
2022/01/12 00:45:34;;;;;;;2.17;1.98;;;;;;;;;;5030902;27;94247;-64
2022/01/12 00:48:01;;;;;;;1.23;1.13;;;;;;;;;;5015323;28;94195;-64
2022/01/12 00:50:27;;;;;;;1.42;1.30;;;;;;;;;;5018809;28;92425;-64
2022/01/12 00:52:53;;;;;;;1.88;1.60;;;;;;;;;;5015446;28;92406;-64
2022/01/12 00:55:20;;;;;;;2.22;1.50;;;;;;;;;;5021311;27;93063;-64
2022/01/12 00:57:47;;;;;;;1.73;1.63;;;;;;;;;;5026522;27;93182;-64
2022/01/12 01:00:13;;;;;;;1.70;1.60;;;;;;;;;;5018074;28;92987;-64
2022/01/12 01:02:40;;;;;;;1.40;1.30;;;;;;;;;;5029189;27;92367;-64
2022/01/12 01:05:07;;;;;;;1.88;1.52;;;;;;;;;;5024849;28;94151;-64
2022/01/12 01:07:33;;;;;;;1.67;1.50;;;;;;;;;;5021551;28;94815;-64
2022/01/12 01:10:09;;;;;;;1.67;1.58;;;;;;;;;;5028956;28;92312;-64
2022/01/12 01:12:36;;;;;;;1.70;1.60;;;;;;;;;;5013138;28;94785;-64
2022/01/12 01:15:09;;;;;;;1.58;1.48;;;;;;;;;;5028091;28;92765;-64
2022/01/12 01:25:33;;;;;;;1.38;1.33;;;;;;;;;;5017213;28;92815;-64
2022/01/12 01:28:00;;;;;;;1.38;1.27;;;;;;;;;;5028254;28;94578;-64
2022/01/12 01:30:27;;;;;;;1.50;1.40;;;;;;;;;;5030964;27;92281;-64
2022/01/12 01:32:54;;;;;;;1.52;1.42;;;;;;;;;;5032076;27;95594;-64
2022/01/12 01:35:20;;;;;;;1.20;1.20;;;;;;;;;;5007979;28;92354;-64
2022/01/12 01:37:46;;;;;;;1.73;1.63;;;;;;;;;;5015192;28;92274;-64
2022/01/12 01:40:13;;;;;;;1.88;1.77;;;;;;;;;;5019323;28;93134;-64
2022/01/12 01:42:54;;;;;;;1.25;1.15;;;;;;;;;;5034976;27;92463;-64
2022/01/12 01:53:37;;;;;;;1.48;1.38;;;;;;;;;;5017928;28;92403;-64
2022/01/12 01:56:04;;;;;;;1.60;1.50;;;;;;;;;;5019816;28;92922;-64
2022/01/12 01:58:30;;;;;;;1.30;1.20;;;;;;;;;;5022613;27;96060;-64
2022/01/12 02:00:56;;;;;;;1.50;1.40;;;;;;;;;;5015636;28;93251;-64
2022/01/12 02:03:27;;;;;;;1.85;1.60;;;;;;;;;;5022949;27;92548;-64
2022/01/12 02:05:54;;;;;;;1.30;1.20;;;;;;;;;;5016426;27;92690;-64
2022/01/12 02:08:21;;;;;;;1.50;1.40;;;;;;;;;;5027137;28;94821;-64
2022/01/12 02:10:52;;;;;;;1.50;1.40;;;;;;;;;;5024444;27;92818;-64
2022/01/12 02:13:18;;;;;;;1.77;1.60;;;;;;;;;;5001356;28;92725;-64
2022/01/12 02:15:46;;;;;;;1.70;1.60;;;;;;;;;;5036628;27;91911;-64
2022/01/12 02:40:26;;;;;;;1.40;1.30;;;;;;;;;;4958520;28;92825;-64
2022/01/12 02:43:08;;;;;;;1.40;1.30;;;;;;;;;;4972543;28;91712;-64
2022/01/12 02:51:16;;;;;;;1.55;1.45;;;;;;;;;;4972707;28;95126;-64
2022/01/12 02:53:43;;;;;;;1.65;1.55;;;;;;;;;;4971977;28;92391;-64
2022/01/12 02:56:12;;;;;;;1.67;1.48;;;;;;;;;;4977354;28;93894;-64
2022/01/12 02:58:39;;;;;;;1.83;1.73;;;;;;;;;;4978710;28;92326;-64
2022/01/12 03:03:44;;;;;;;2.67;1.42;;;;;;;;;;4975288;28;93079;-64
2022/01/12 03:06:16;;;;;;;1.55;1.45;;;;;;;;;;4974852;28;92484;-64
2022/01/12 03:08:42;;;;;;;1.48;1.38;;;;;;;;;;4998079;28;91819;-64
2022/01/12 03:11:12;;;;;;;2.35;1.88;;;;;;;;;;5013834;28;93504;-64
2022/01/12 03:13:39;;;;;;;1.45;1.35;;;;;;;;;;5013773;28;92598;-64
2022/01/12 03:16:13;;;;;;;1.42;1.33;;;;;;;;;;5016725;28;94794;-64
2022/01/12 03:18:40;;;;;;;1.58;1.48;;;;;;;;;;5021939;27;92371;-64
2022/01/12 03:21:07;;;;;;;1.90;1.80;;;;;;;;;;5016748;28;92459;-64
2022/01/12 03:23:33;;;;;;;1.50;1.40;;;;;;;;;;5016393;28;92884;-64
2022/01/12 03:25:59;;;;;;;1.30;1.20;;;;;;;;;;5016697;28;93899;-64
2022/01/12 03:28:26;;;;;;;1.55;1.45;;;;;;;;;;5033398;27;92397;-64
2022/01/12 03:30:56;;;;;;;1.30;1.20;;;;;;;;;;5033063;27;93598;-64
2022/01/12 03:36:29;;;;;;;1.45;1.35;;;;;;;;;;5017956;28;92642;-64
2022/01/12 03:38:59;;;;;;;1.60;1.50;;;;;;;;;;5033298;27;93488;-64
2022/01/12 03:41:27;;;;;;;1.50;1.40;;;;;;;;;;5027845;27;94887;-64
2022/01/12 03:43:54;;;;;;;1.40;1.30;;;;;;;;;;5025664;27;95468;-64
2022/01/12 03:46:29;;;;;;;1.58;1.48;;;;;;;;;;5016830;28;94490;-64
2022/01/12 03:48:55;;;;;;;1.60;1.50;;;;;;;;;;4993319;28;93308;-64
2022/01/12 03:51:21;;;;;;;1.52;1.42;;;;;;;;;;5008298;28;93442;-64
2022/01/12 03:53:48;;;;;;;1.67;1.50;;;;;;;;;;5012857;28;92431;-64
2022/01/12 03:56:14;;;;;;;1.38;1.30;;;;;;;;;;5014677;28;92710;-64
2022/01/12 03:58:41;;;;;;;1.75;1.65;;;;;;;;;;5023648;28;93723;-64
2022/01/12 04:01:07;;;;;;;1.50;1.40;;;;;;;;;;5022713;27;92599;-64
2022/01/12 04:03:41;;;;;;;2.03;1.83;;;;;;;;;;5017190;28;92479;-64
2022/01/12 04:08:52;;;;;;;1.60;1.50;;;;;;;;;;5030018;27;92462;-64
2022/01/12 04:11:18;;;;;;;1.55;1.45;;;;;;;;;;5021258;27;93184;-64
2022/01/12 04:13:47;;;;;;;1.60;1.50;;;;;;;;;;5012872;28;92365;-64
2022/01/12 04:16:14;;;;;;;1.58;1.48;;;;;;;;;;5012412;28;92939;-64
2022/01/12 04:18:41;;;;;;;1.30;1.20;;;;;;;;;;5012601;28;93570;-64
2022/01/12 04:21:09;;;;;;;1.50;1.35;;;;;;;;;;5013998;28;92689;-64
2022/01/12 04:23:36;;;;;;;1.30;1.20;;;;;;;;;;5015081;28;93126;-64
2022/01/12 04:26:12;;;;;;;1.48;1.38;;;;;;;;;;5032479;27;94565;-64
2022/01/12 04:28:40;;;;;;;1.58;1.45;;;;;;;;;;5028787;27;92633;-64
2022/01/12 04:31:06;;;;;;;1.52;1.42;;;;;;;;;;5021997;28;94774;-64
2022/01/12 04:33:34;;;;;;;1.60;1.50;;;;;;;;;;5015670;27;92605;-64
2022/01/12 04:36:01;;;;;;;1.30;1.30;;;;;;;;;;5013246;28;92419;-64
2022/01/12 04:38:29;;;;;;;1.63;1.52;;;;;;;;;;5012813;28;93372;-64
2022/01/12 04:40:55;;;;;;;1.75;1.65;;;;;;;;;;5014277;28;92604;-64
2022/01/12 04:43:24;;;;;;;1.77;1.67;;;;;;;;;;5006854;28;92418;-64
2022/01/12 04:50:49;;;;;;;1.80;1.70;;;;;;;;;;5024426;28;92487;-64
2022/01/12 04:53:17;;;;;;;1.40;1.30;;;;;;;;;;5014991;28;92683;-64
2022/01/12 04:55:44;;;;;;;1.50;1.40;;;;;;;;;;5013247;28;94818;-64
2022/01/12 04:58:10;;;;;;;1.63;1.52;;;;;;;;;;5021738;27;93625;-64
2022/01/12 05:00:37;;;;;;;2.08;1.60;;;;;;;;;;5021537;28;92464;-64
2022/01/12 05:13:53;;;;;;;1.50;1.40;;;;;;;;;;5031764;27;92331;-64
2022/01/12 05:16:20;;;;;;;1.42;1.33;;;;;;;;;;5019142;28;92321;-64
2022/01/12 05:18:47;;;;;;;1.58;1.48;;;;;;;;;;5024948;27;93439;-64
2022/01/12 05:21:15;;;;;;;1.50;1.40;;;;;;;;;;5022157;27;95782;-64
2022/01/12 05:23:41;;;;;;;1.60;1.48;;;;;;;;;;5029902;28;93766;-64
2022/01/12 05:26:07;;;;;;;2.58;1.50;;;;;;;;;;5031491;27;93253;-64
2022/01/12 05:28:33;;;;;;;2.08;1.67;;;;;;;;;;5031353;27;92330;-64
2022/01/12 05:31:01;;;;;;;1.65;1.55;;;;;;;;;;5024454;27;92749;-64
2022/01/12 05:33:28;;;;;;;1.80;1.70;;;;;;;;;;5016317;28;93376;-64
2022/01/12 05:35:55;;;;;;;1.83;1.73;;;;;;;;;;5034801;27;92541;-64
2022/01/12 05:38:22;;;;;;;1.88;1.75;;;;;;;;;;5031944;27;92358;-64
2022/01/12 05:40:52;;;;;;;2.65;1.63;;;;;;;;;;5027105;27;92317;-64
2022/01/12 05:43:24;;;;;;;1.90;1.80;;;;;;;;;;5023512;28;92968;-64
2022/01/12 05:45:52;;;;;;;1.88;1.77;;;;;;;;;;5021041;27;94851;-64
2022/01/12 05:50:49;;;;;;;1.70;1.60;;;;;;;;;;5022579;28;93009;-64
2022/01/12 05:53:16;;;;;;;1.60;1.50;;;;;;;;;;5031914;28;93412;-64
2022/01/12 05:55:43;;;;;;;1.75;1.65;;;;;;;;;;5024972;27;92440;-64
2022/01/12 05:58:11;;;;;;;1.77;1.65;;;;;;;;;;5014186;28;92442;-64
2022/01/12 06:00:37;;;;;;;1.65;1.52;;;;;;;;;;5015374;28;92567;-64
2022/01/12 06:03:03;;;;;;;1.60;1.50;;;;;;;;;;5012494;28;91865;-64
2022/01/12 06:05:30;;;;;;;1.70;1.60;;;;;;;;;;5013721;28;94672;-64
2022/01/12 06:07:56;;;;;;;1.65;1.55;;;;;;;;;;5032453;28;92393;-64
2022/01/12 06:10:23;;;;;;;1.60;1.50;;;;;;;;;;5027838;27;94812;-64
2022/01/12 06:12:50;;;;;;;2.50;1.77;;;;;;;;;;5029953;28;94067;-64
2022/01/12 06:15:17;;;;;;;1.60;1.50;;;;;;;;;;5026265;27;92993;-64
2022/01/12 06:17:43;;;;;;;1.67;1.58;;;;;;;;;;5015775;28;94263;-64
2022/01/12 06:20:10;;;;;;;1.77;1.67;;;;;;;;;;5022097;28;93238;-64
2022/01/12 06:22:36;;;;;;;1.60;1.50;;;;;;;;;;5031149;28;93122;-64
2022/01/12 06:25:06;;;;;;;1.52;1.38;;;;;;;;;;5032744;27;92429;-64
2022/01/12 06:27:34;;;;;;;1.83;1.73;;;;;;;;;;5019848;28;91666;-64
2022/01/12 06:32:50;;;;;;;1.70;1.60;;;;;;;;;;4974571;28;92562;-64
2022/01/12 06:35:16;;;;;;;1.90;1.80;;;;;;;;;;4973556;28;95006;-64
2022/01/12 06:37:42;;;;;;;1.70;1.60;;;;;;;;;;4991367;28;94048;-64
2022/01/12 06:40:09;;;;;;;1.67;1.50;;;;;;;;;;4980259;28;94393;-64
2022/01/12 06:42:35;;;;;;;1.73;1.63;;;;;;;;;;4976339;28;92502;-64
2022/01/12 06:45:05;;;;;;;;;;;;;;;;;;4972152;28;93143;-64
2022/01/12 06:47:32;;;;;;;1.73;1.63;;;;;;;;;;4988901;28;117744;-64
2022/01/12 06:49:58;;;;;;;2.72;1.63;;;;;;;;;;4989130;28;92665;-64
2022/01/12 06:52:24;;;;;;;1.80;1.70;;;;;;;;;;4988097;28;91783;-64
2022/01/12 06:54:51;;;;;;;1.80;1.70;;;;;;;;;;4990943;28;92497;-64
2022/01/12 06:57:17;;;;;;;1.90;1.80;;;;;;;;;;4957998;28;93721;-64
2022/01/12 06:59:44;;;;;;;1.30;1.30;;;;;;;;;;4950225;28;96170;-64
2022/01/12 07:02:11;;;;;;;1.80;1.70;;;;;;;;;;4978622;28;92563;-64
2022/01/12 07:04:37;;;;;;;2.00;1.80;;;;;;;;;;4974900;28;93007;-64
2022/01/12 07:07:03;;;;;;;1.70;1.60;;;;;;;;;;4982074;28;92492;-64
2022/01/12 07:09:30;;;;;;;1.80;1.70;;;;;;;;;;5003718;28;92421;-64
2022/01/12 07:11:56;;;;;;;1.73;1.63;;;;;;;;;;5017017;27;93649;-64
2022/01/12 07:14:22;;;;;;;2.13;1.75;;;;;;;;;;5019231;28;92489;-64
2022/01/12 07:16:49;;;;;;;1.80;1.70;;;;;;;;;;5014762;27;91820;-64
2022/01/12 07:19:15;;;;;;;1.90;1.75;;;;;;;;;;5022595;28;94331;-64
2022/01/12 07:21:41;;;;;;;2.30;1.80;;;;;;;;;;5022789;27;92428;-64
2022/01/12 07:24:07;;;;;;;1.80;1.70;;;;;;;;;;5012635;28;94811;-64
2022/01/12 07:26:34;;;;;;;1.90;1.80;;;;;;;;;;5016167;28;92561;-64
2022/01/12 07:29:01;;;;;;;1.92;1.83;;;;;;;;;;5013565;28;92957;-64
2022/01/12 07:31:27;;;;;;;1.92;1.83;;;;;;;;;;5013927;28;92807;-64
2022/01/12 07:33:56;;;;;;;1.80;1.70;;;;;;;;;;5014314;28;92533;-64
2022/01/12 07:36:22;;;;;;;1.60;1.50;;;;;;;;;;5014467;27;92821;-64
2022/01/12 07:38:53;;;;;;;1.98;1.88;;;;;;;;;;5023350;28;92792;-64
2022/01/12 07:41:21;;;;;;;2.00;1.90;;;;;;;;;;5016117;28;91641;-64
2022/01/12 07:43:48;;;;;;;1.90;1.80;;;;;;;;;;5013462;28;92355;-64
2022/01/12 07:46:14;;;;;;;1.70;1.60;;;;;;;;;;5027720;28;92381;-64
2022/01/12 07:48:40;;;;;;;1.58;1.48;;;;;;;;;;5014209;27;94861;-64
2022/01/12 07:51:08;;;;;;;1.98;1.70;;;;;;;;;;5016424;28;92497;-64
2022/01/12 07:53:34;;;;;;;1.73;1.63;;;;;;;;;;5019774;27;92485;-64
2022/01/12 07:56:01;;;;;;;1.63;1.52;;;;;;;;;;5010419;28;92958;-64
2022/01/12 07:58:27;;;;;;;1.70;1.60;;;;;;;;;;5017558;28;92494;-64
2022/01/12 08:00:54;;;;;;;1.75;1.65;;;;;;;;;;5011015;28;92910;-64
2022/01/12 08:03:22;;;;;;;1.60;1.50;;;;;;;;;;5013212;28;92382;-64
2022/01/12 08:05:49;;;;;;;1.80;1.70;;;;;;;;;;5011503;28;93761;-64
2022/01/12 08:08:15;;;;;;;1.95;1.83;;;;;;;;;;5015241;28;92522;-64
2022/01/12 08:10:42;;;;;;;1.60;1.50;;;;;;;;;;5012517;28;93180;-64
2022/01/12 08:13:08;;;;;;;1.70;1.60;;;;;;;;;;5022604;28;94826;-64
2022/01/12 08:15:34;;;;;;;1.92;1.83;;;;;;;;;;5032919;27;94151;-64
2022/01/12 08:18:00;;;;;;;1.50;1.40;;;;;;;;;;5023641;27;92435;-64
2022/01/12 08:20:28;;;;;;;1.75;1.65;;;;;;;;;;5013168;28;93503;-64
2022/01/12 08:22:55;;;;;;;1.63;1.52;;;;;;;;;;5012531;28;93287;-64
2022/01/12 08:25:21;;;;;;;1.92;1.70;;;;;;;;;;5015153;27;93775;-64
2022/01/12 08:27:47;;;;;;;1.90;1.80;;;;;;;;;;5012848;28;92366;-64
2022/01/12 08:30:18;;;;;;;1.67;1.58;;;;;;;;;;5016711;28;93642;-64
2022/01/12 08:32:45;;;;;;;1.80;1.70;;;;;;;;;;5011927;28;92492;-64
2022/01/12 08:35:12;;;;;;;1.63;1.52;;;;;;;;;;5003899;28;92391;-64
2022/01/12 08:37:38;;;;;;;1.70;1.60;;;;;;;;;;5020869;28;96014;-64
2022/01/12 08:40:05;;;;;;;1.90;1.80;;;;;;;;;;5022709;28;92434;-64
2022/01/12 08:42:31;;;;;;;1.70;1.60;;;;;;;;;;5026342;27;93243;-64
2022/01/12 08:44:59;;;;;;;1.70;1.60;;;;;;;;;;5009716;28;93314;-64
2022/01/12 08:47:26;;;;;;;1.70;1.58;;;;;;;;;;5012048;28;92449;-64
2022/01/12 08:49:53;;;;;;;2.20;1.42;;;;;;;;;;5012534;28;92421;-64
2022/01/12 08:52:21;;;;;;;1.70;1.60;;;;;;;;;;5019661;28;93566;-64
2022/01/12 08:54:47;;;;;;;1.70;1.60;;;;;;;;;;5012724;28;91657;-64
2022/01/12 08:57:14;;;;;;;1.60;1.50;;;;;;;;;;5012945;28;93891;-64
2022/01/12 08:59:40;;;;;;;1.73;1.63;;;;;;;;;;5012344;28;92516;-64
2022/01/12 09:02:07;;;;;;;1.95;1.73;;;;;;;;;;5009481;28;95748;-65
2022/01/12 09:04:34;;;;;;;6.30;2.08;;;;;;;;;;5011231;28;92490;-62
2022/01/12 09:07:00;;;;;;;4.50;2.90;;;;;;;;;;5011791;28;93037;-62
2022/01/12 09:09:27;;;;;;;13.18;2.20;;;;;;;;;;5019836;28;92977;-62
2022/01/12 09:11:53;;;;;;;3.13;2.83;;;;;;;;;;5032471;27;92603;-62
2022/01/12 09:14:19;;;;;;;16.38;3.28;;;;;;;;;;5024452;27;93127;-61
2022/01/12 09:16:55;;;;;;;5.65;3.10;;;;;;;;;;5011510;27;92892;-62
2022/01/12 09:19:22;;;;;;;4.95;3.22;;;;;;;;;;5014888;28;91748;-62
2022/01/12 09:21:49;;;;;;;6.75;2.65;;;;;;;;;;5012132;28;92447;-61
2022/01/12 09:24:15;;;;;;;13.50;2.85;;;;;;;;;;5011569;28;92366;-61
2022/01/12 09:26:42;;;;;;;6.18;2.80;;;;;;;;;;5010063;28;94820;-62
2022/01/12 09:29:08;;;;;;;6.65;3.15;;;;;;;;;;5011212;28;95723;-62
2022/01/12 09:31:35;;;;;;;6.15;2.88;;;;;;;;;;5007318;28;93448;-61
2022/01/12 09:34:02;;;;;;;4.97;3.05;;;;;;;;;;5013742;28;92579;-61
2022/01/12 09:36:28;;;;;;;7.57;2.97;;;;;;;;;;5020133;28;92538;-61
2022/01/12 09:38:55;;;;;;;4.50;2.65;;;;;;;;;;5023012;27;92426;-60
2022/01/12 09:41:24;;;;;;;4.53;3.03;;;;;;;;;;5021807;28;93186;-62
2022/01/12 09:43:51;;;;;;;7.07;2.75;;;;;;;;;;5026277;28;92951;-61
2022/01/12 09:46:18;;;;;;;8.82;3.10;;;;;;;;;;5025172;28;92859;-62
2022/01/12 09:48:45;;;;;;;13.88;3.38;;;;;;;;;;5034806;27;93067;-63
2022/01/12 09:51:11;;;;;;;15.55;3.70;;;;;;;;;;5026019;27;94804;-62
2022/01/12 09:53:38;;;;;;;7.25;2.90;;;;;;;;;;5015452;28;92468;-62
2022/01/12 09:56:18;;;;;;;4.32;2.60;;;;;;;;;;5021075;28;93440;-62
2022/01/12 09:58:45;;;;;;;4.43;3.00;;;;;;;;;;5008369;28;92377;-63
2022/01/12 10:01:11;;;;;;;5.38;2.38;;;;;;;;;;5014123;28;92483;-63
2022/01/12 10:03:38;;;;;;;6.57;2.55;;;;;;;;;;5014542;28;92426;-64
2022/01/12 10:06:11;;;;;;;10.90;3.25;;;;;;;;;;5014566;28;92736;-64
2022/01/12 10:08:37;;;;;;;6.93;3.67;;;;;;;;;;5034202;27;92153;-62
2022/01/12 10:11:06;;;;;;;17.73;3.25;;;;;;;;;;5029440;27;94569;-63
2022/01/12 10:13:33;;;;;;;8.25;3.63;;;;;;;;;;5015899;28;93869;-63
2022/01/12 10:16:09;;;;;;;12.63;3.42;;;;;;;;;;5013107;28;94849;-62
2022/01/12 10:18:51;;;;;;;20.48;3.92;;;;;;;;;;5017704;28;92653;-63
2022/01/12 10:21:26;;;;;;;15.05;4.40;;;;;;;;;;5015103;28;93058;-60
2022/01/12 10:23:57;;;;;;;9.57;3.70;;;;;;;;;;5015389;27;94073;-61
2022/01/12 10:26:30;;;;;;;11.07;3.83;;;;;;;;;;5020036;28;92322;-61
2022/01/12 10:29:04;;;;;;;7.05;3.58;;;;;;;;;;5034528;27;93102;-61
2022/01/12 10:31:41;;;;;;;9.05;3.35;;;;;;;;;;5032107;27;92404;-61
2022/01/12 10:34:07;;;;;;;18.05;4.05;;;;;;;;;;4994646;28;92032;-61
2022/01/12 10:36:40;;;;;;;13.38;4.20;;;;;;;;;;5017987;28;92489;-61
2022/01/12 10:39:08;;;;;;;9.30;3.85;;;;;;;;;;5013919;28;93207;-61
2022/01/12 10:41:34;;;;;;;9.30;3.47;;;;;;;;;;5025612;28;94829;-59
2022/01/12 10:44:01;;;;;;;8.05;3.80;;;;;;;;;;5014489;28;93225;-61
2022/01/12 10:46:29;;;;;;;15.98;4.43;;;;;;;;;;5022526;28;93349;-60
2022/01/12 10:48:56;;;;;;;14.15;4.18;;;;;;;;;;5034027;27;92916;-61
2022/01/12 10:51:26;;;;;;;8.20;4.10;;;;;;;;;;5024558;27;93261;-61
2022/01/12 10:53:53;;;;;;;18.58;4.43;;;;;;;;;;5014642;28;92336;-61
2022/01/12 10:56:21;;;;;;;15.90;4.63;;;;;;;;;;5023398;28;94317;-62
2022/01/12 10:58:48;;;;;;;23.98;5.45;;;;;;;;;;5013871;28;91726;-57
2022/01/12 11:01:16;;;;;;;23.05;3.95;;;;;;;;;;5013355;28;92611;-60
2022/01/12 11:03:43;;;;;;;13.27;4.13;;;;;;;;;;5025826;28;92416;-60
2022/01/12 11:06:09;;;;;;;10.45;4.15;;;;;;;;;;5029332;27;94837;-60
2022/01/12 11:08:37;;;;;;;13.10;4.07;;;;;;;;;;5013568;28;94216;-60
2022/01/12 11:11:03;;;;;;;15.52;4.55;;;;;;;;;;5013614;28;94224;-60
2022/01/12 11:13:31;;;;;;;13.15;3.60;;;;;;;;;;5021549;28;92508;-61
2022/01/12 11:15:57;;;;;;;12.95;3.80;;;;;;;;;;5015400;28;92529;-61
2022/01/12 11:18:28;;;;;;;15.52;4.13;;;;;;;;;;5017199;28;93445;-61
2022/01/12 11:21:04;;;;;;;21.00;4.43;;;;;;;;;;5025457;27;92311;-60
2022/01/12 11:23:35;;;;;;;46.20;4.63;;;;;;;;;;5019364;27;91919;-61
2022/01/12 11:26:11;;;;;;;21.92;4.60;;;;;;;;;;5018281;28;93413;-61
2022/01/12 11:28:38;;;;;;;16.15;4.82;;;;;;;;;;5011673;28;92907;-61
2022/01/12 11:31:05;;;;;;;19.63;4.13;;;;;;;;;;5030768;27;95925;-59
2022/01/12 11:33:31;;;;;;;19.88;4.28;;;;;;;;;;5020591;27;92514;-58
2022/01/12 11:36:02;;;;;;;18.90;4.40;;;;;;;;;;5015012;28;93087;-60
2022/01/12 11:38:29;;;;;;;14.38;3.63;;;;;;;;;;5013295;28;92967;-60
2022/01/12 11:41:09;;;;;;;17.55;3.28;;;;;;;;;;5029933;28;92450;-58
2022/01/12 11:43:41;;;;;;;15.98;3.28;;;;;;;;;;5016409;27;92801;-59
2022/01/12 11:46:09;;;;;;;12.82;3.28;;;;;;;;;;5017557;28;93564;-60
2022/01/12 11:48:36;;;;;;;13.05;3.80;;;;;;;;;;5016612;28;91613;-60
2022/01/12 11:51:02;;;;;;;8.85;3.33;;;;;;;;;;5022565;28;92724;-57
2022/01/12 11:53:31;;;;;;;11.60;3.45;;;;;;;;;;5013278;28;92416;-58
2022/01/12 11:56:09;;;;;;;12.13;3.10;;;;;;;;;;5015945;28;94848;-60
2022/01/12 11:58:35;;;;;;;7.43;2.78;;;;;;;;;;5012403;28;93447;-58
2022/01/12 12:01:12;;;;;;;11.73;3.05;;;;;;;;;;5012343;28;92395;-60
2022/01/12 12:03:39;;;;;;;9.88;2.45;;;;;;;;;;5009069;28;93401;-60
2022/01/12 12:06:14;;;;;;;10.85;3.50;;;;;;;;;;5014355;28;93498;-60
2022/01/12 12:08:54;;;;;;;10.60;3.05;;;;;;;;;;5015056;28;92340;-59
2022/01/12 12:11:20;;;;;;;10.18;3.17;;;;;;;;;;5013210;28;92364;-60
2022/01/12 12:13:47;;;;;;;9.20;2.90;;;;;;;;;;5013240;28;91787;-59
2022/01/12 12:16:13;;;;;;;11.35;2.83;;;;;;;;;;5012406;28;92333;-60
2022/01/12 12:18:39;;;;;;;10.45;2.95;;;;;;;;;;5012650;28;92582;-60
2022/01/12 12:21:06;;;;;;;9.68;2.78;;;;;;;;;;5011030;28;94943;-60
2022/01/12 12:23:32;;;;;;;8.25;2.53;;;;;;;;;;5012289;28;95174;-60
2022/01/12 12:26:06;;;;;;;16.25;3.13;;;;;;;;;;5012317;28;92367;-59
2022/01/12 12:28:32;;;;;;;10.50;2.75;;;;;;;;;;5011166;28;94056;-60
2022/01/12 12:30:59;;;;;;;11.25;2.35;;;;;;;;;;5013852;28;92857;-60
2022/01/12 12:33:25;;;;;;;6.20;2.38;;;;;;;;;;5011642;28;92437;-60
2022/01/12 12:35:51;;;;;;;7.38;2.53;;;;;;;;;;5011121;28;92943;-60
2022/01/12 12:38:19;;;;;;;12.50;2.90;;;;;;;;;;5012350;28;91772;-60
2022/01/12 12:40:47;;;;;;;7.20;2.20;;;;;;;;;;5012255;28;92422;-60
2022/01/12 12:43:21;;;;;;;7.57;2.30;;;;;;;;;;5011942;28;93093;-60
2022/01/12 12:45:57;;;;;;;14.20;2.50;;;;;;;;;;5011739;28;95845;-60
2022/01/12 12:48:25;;;;;;;6.78;2.42;;;;;;;;;;5012459;28;92918;-57
2022/01/12 12:50:58;;;;;;;7.85;2.08;;;;;;;;;;5013228;28;93194;-56
2022/01/12 12:53:32;;;;;;;14.05;2.25;;;;;;;;;;5015956;28;92782;-59
2022/01/12 12:55:58;;;;;;;6.13;2.20;;;;;;;;;;5023627;28;92379;-58
2022/01/12 12:58:31;;;;;;;7.05;2.30;;;;;;;;;;4999170;28;93435;-58
2022/01/12 13:01:07;;;;;;;6.50;2.40;;;;;;;;;;4999282;28;92586;-58
2022/01/12 13:03:35;;;;;;;4.30;2.30;;;;;;;;;;5011753;28;93239;-56
2022/01/12 13:06:01;;;;;;;5.22;2.72;;;;;;;;;;5016174;27;92387;-57
2022/01/12 13:08:27;;;;;;;10.38;2.88;;;;;;;;;;5029814;28;92360;-62
2022/01/12 13:10:54;;;;;;;9.35;2.88;;;;;;;;;;5031348;27;95498;-62
2022/01/12 13:13:20;;;;;;;7.40;3.10;;;;;;;;;;5012798;27;93509;-62
2022/01/12 13:15:46;;;;;;;10.05;3.00;;;;;;;;;;5018871;28;92353;-62
2022/01/12 13:18:17;;;;;;;8.63;3.00;;;;;;;;;;5018207;27;93424;-62
2022/01/12 13:23:36;;;;;;;10.38;2.92;;;;;;;;;;5012266;28;123374;-62
2022/01/12 13:26:05;;;;;;;10.88;3.30;;;;;;;;;;5011508;28;93106;-63
2022/01/12 13:28:32;;;;;;;10.80;3.10;;;;;;;;;;5011705;28;91691;-62
2022/01/12 13:31:00;;;;;;;8.98;3.15;;;;;;;;;;5011173;28;93018;-61
2022/01/12 13:33:26;;;;;;;8.70;3.30;;;;;;;;;;5011103;28;92494;-62
2022/01/12 13:35:52;;;;;;;9.88;3.08;;;;;;;;;;5013494;28;94919;-63
2022/01/12 13:38:32;;;;;;;6.82;2.70;;;;;;;;;;5026356;27;95343;-63
2022/01/12 13:41:06;;;;;;;11.25;3.35;;;;;;;;;;5018938;28;92263;-60
2022/01/12 13:43:32;;;;;;;9.38;2.63;;;;;;;;;;5018873;28;92848;-61
2022/01/12 13:46:16;;;;;;;12.93;3.25;;;;;;;;;;5018828;27;92551;-61
2022/01/12 13:49:05;;;;;;;23.92;2.97;;;;;;;;;;5014161;28;92452;-61
2022/01/12 13:51:37;;;;;;;8.85;2.60;;;;;;;;;;5018297;27;92815;-60
2022/01/12 13:54:05;;;;;;;6.50;3.13;;;;;;;;;;5019860;28;92385;-60
2022/01/12 13:56:39;;;;;;;18.35;3.92;;;;;;;;;;5014972;28;92567;-60
2022/01/12 13:59:06;;;;;;;17.55;3.75;;;;;;;;;;5016327;28;92520;-59
2022/01/12 14:01:33;;;;;;;28.73;4.13;;;;;;;;;;5017874;28;94743;-59
2022/01/12 14:06:38;;;;;;;8.55;3.25;;;;;;;;;;5010876;28;94407;-60
2022/01/12 14:09:20;;;;;;;17.17;3.65;;;;;;;;;;5011180;28;92413;-61
2022/01/12 14:11:48;;;;;;;10.40;3.20;;;;;;;;;;5008731;28;93776;-61
2022/01/12 14:14:15;;;;;;;17.17;6.97;;;;;;;;;;5013872;27;92432;-60
2022/01/12 14:16:41;;;;;;;14.15;7.38;;;;;;;;;;5010950;28;92554;-60
2022/01/12 14:19:08;;;;;;;14.82;5.80;;;;;;;;;;5015397;28;91716;-60
2022/01/12 14:21:35;;;;;;;16.88;5.00;;;;;;;;;;5013808;28;93224;-59
2022/01/12 14:24:05;;;;;;;17.60;4.60;;;;;;;;;;5013103;28;92505;-59
2022/01/12 14:26:35;;;;;;;14.88;4.55;;;;;;;;;;5019465;27;96480;-60
2022/01/12 14:29:01;;;;;;;21.73;5.00;;;;;;;;;;5019667;27;93817;-60
2022/01/12 14:31:27;;;;;;;20.63;4.28;;;;;;;;;;5021558;28;94255;-59
2022/01/12 14:33:56;;;;;;;16.77;4.10;;;;;;;;;;5013690;28;92605;-60
2022/01/12 14:36:22;;;;;;;14.18;4.72;;;;;;;;;;5014682;28;92786;-59
2022/01/12 14:38:48;;;;;;;12.23;4.45;;;;;;;;;;5009015;28;92491;-59
2022/01/12 14:41:15;;;;;;;10.57;4.05;;;;;;;;;;5010362;28;92468;-59
2022/01/12 14:43:41;;;;;;;10.05;3.83;;;;;;;;;;5017840;28;91688;-59
2022/01/12 14:46:08;;;;;;;11.10;4.03;;;;;;;;;;5014169;28;93389;-60
2022/01/12 14:48:34;;;;;;;11.35;3.75;;;;;;;;;;5014547;28;92448;-60
2022/01/12 14:51:00;;;;;;;9.63;4.35;;;;;;;;;;5013945;28;94749;-59
2022/01/12 14:53:27;;;;;;;8.93;3.63;;;;;;;;;;5013221;28;92770;-60
2022/01/12 14:55:54;;;;;;;9.88;3.35;;;;;;;;;;5014378;28;92876;-60
2022/01/12 14:58:21;;;;;;;8.13;3.22;;;;;;;;;;5014218;28;92266;-59
2022/01/12 15:00:48;;;;;;;8.07;3.33;;;;;;;;;;5023068;28;93388;-60
2022/01/12 15:03:14;;;;;;;7.18;2.95;;;;;;;;;;5024120;27;92458;-59
2022/01/12 15:05:44;;;;;;;8.68;2.80;;;;;;;;;;5015831;28;92564;-59
2022/01/12 15:08:12;;;;;;;8.60;3.00;;;;;;;;;;5010425;28;91884;-60
2022/01/12 15:10:39;;;;;;;7.60;3.00;;;;;;;;;;5006417;28;93243;-60
2022/01/12 15:13:19;;;;;;;8.07;3.20;;;;;;;;;;5011948;28;93460;-59
2022/01/12 15:15:46;;;;;;;5.83;2.97;;;;;;;;;;5007011;28;95295;-60
2022/01/12 15:18:13;;;;;;;8.25;2.67;;;;;;;;;;5020125;28;94242;-60
2022/01/12 15:20:39;;;;;;;7.32;2.50;;;;;;;;;;5005815;28;93736;-60
2022/01/12 15:23:06;;;;;;;4.35;2.67;;;;;;;;;;5011140;28;92390;-59
2022/01/12 15:25:32;;;;;;;7.85;2.83;;;;;;;;;;5006011;28;93103;-59
2022/01/12 15:28:05;;;;;;;3.90;2.35;;;;;;;;;;5016425;28;92387;-60
2022/01/12 15:30:33;;;;;;;7.85;3.08;;;;;;;;;;5011781;28;93918;-60
2022/01/12 15:32:59;;;;;;;9.27;2.72;;;;;;;;;;5012855;28;91719;-59
2022/01/12 15:35:26;;;;;;;5.57;2.50;;;;;;;;;;5013149;28;92397;-60
2022/01/12 15:37:52;;;;;;;5.13;2.38;;;;;;;;;;5011260;28;92361;-59
2022/01/12 15:40:18;;;;;;;4.97;2.28;;;;;;;;;;5014554;28;96043;-60
2022/01/12 15:42:45;;;;;;;6.00;2.35;;;;;;;;;;5013721;28;92454;-60
2022/01/12 15:45:11;;;;;;;10.52;2.67;;;;;;;;;;5011986;28;92440;-60
2022/01/12 15:47:37;;;;;;;4.95;2.42;;;;;;;;;;5012784;28;93191;-60
2022/01/12 15:50:05;;;;;;;5.30;2.28;;;;;;;;;;5014237;28;93039;-59
2022/01/12 15:52:31;;;;;;;5.85;2.60;;;;;;;;;;5012860;28;93243;-60
2022/01/12 15:54:58;;;;;;;4.20;2.55;;;;;;;;;;5011922;28;92537;-59
2022/01/12 15:57:24;;;;;;;6.03;2.35;;;;;;;;;;5010461;28;93172;-60
2022/01/12 15:59:51;;;;;;;4.18;2.58;;;;;;;;;;4993251;28;94537;-60
2022/01/12 16:02:18;;;;;;;4.63;2.30;;;;;;;;;;4997756;28;92500;-60
2022/01/12 16:04:47;;;;;;;4.25;2.50;;;;;;;;;;5007265;28;94830;-58
2022/01/12 16:07:14;;;;;;;5.05;2.13;;;;;;;;;;5010687;28;92692;-60
2022/01/12 16:09:40;;;;;;;3.55;2.40;;;;;;;;;;5013683;28;92461;-59